sensor_id;sensor_type;location;lat;lon;timestamp;pressure;altitude;pressure_sealevel;temperature;humidity
26043;BME280;13818;52.156;5.382;2023-08-07T00:01:34;101029.78;;;14.14;100.00
26043;BME280;13818;52.156;5.382;2023-08-07T00:04:00;101026.50;;;14.09;100.00
26043;BME280;13818;52.156;5.382;2023-08-07T00:06:28;101030.63;;;14.14;100.00
26043;BME280;13818;52.156;5.382;2023-08-07T00:08:54;101033.31;;;14.14;100.00
26043;BME280;13818;52.156;5.382;2023-08-07T00:11:21;101034.88;;;14.19;100.00
26043;BME280;13818;52.156;5.382;2023-08-07T00:13:47;101042.81;;;14.20;100.00
26043;BME280;13818;52.156;5.382;2023-08-07T00:16:13;101042.63;;;14.23;100.00
26043;BME280;13818;52.156;5.382;2023-08-07T00:18:40;101035.56;;;14.22;100.00
26043;BME280;13818;52.156;5.382;2023-08-07T00:21:06;101037.72;;;14.15;100.00
26043;BME280;13818;52.156;5.382;2023-08-07T00:23:34;101033.53;;;14.26;100.00
26043;BME280;13818;52.156;5.382;2023-08-07T00:26:01;101037.00;;;14.28;100.00
26043;BME280;13818;52.156;5.382;2023-08-07T00:28:27;101046.94;;;14.26;100.00
26043;BME280;13818;52.156;5.382;2023-08-07T00:30:54;101037.19;;;14.25;100.00
26043;BME280;13818;52.156;5.382;2023-08-07T00:33:21;101042.03;;;14.18;100.00
26043;BME280;13818;52.156;5.382;2023-08-07T00:35:48;101026.72;;;14.20;100.00
26043;BME280;13818;52.156;5.382;2023-08-07T00:38:14;101035.47;;;14.24;100.00
26043;BME280;13818;52.156;5.382;2023-08-07T00:40:42;101038.75;;;14.29;100.00
26043;BME280;13818;52.156;5.382;2023-08-07T00:43:08;101038.47;;;14.34;100.00
26043;BME280;13818;52.156;5.382;2023-08-07T00:45:41;101038.38;;;14.35;100.00
26043;BME280;13818;52.156;5.382;2023-08-07T00:48:07;101035.78;;;14.34;100.00
26043;BME280;13818;52.156;5.382;2023-08-07T00:50:34;101037.78;;;14.30;100.00
26043;BME280;13818;52.156;5.382;2023-08-07T00:53:01;101035.00;;;14.31;100.00
26043;BME280;13818;52.156;5.382;2023-08-07T00:55:28;101030.59;;;14.30;100.00
26043;BME280;13818;52.156;5.382;2023-08-07T00:57:56;101031.38;;;14.32;100.00
26043;BME280;13818;52.156;5.382;2023-08-07T01:00:22;101024.19;;;14.33;100.00
26043;BME280;13818;52.156;5.382;2023-08-07T01:02:49;101026.88;;;14.33;100.00
26043;BME280;13818;52.156;5.382;2023-08-07T01:05:17;101025.06;;;14.34;100.00
26043;BME280;13818;52.156;5.382;2023-08-07T01:07:45;101033.78;;;14.37;100.00
26043;BME280;13818;52.156;5.382;2023-08-07T01:10:13;101025.72;;;14.37;100.00
26043;BME280;13818;52.156;5.382;2023-08-07T01:12:44;101033.41;;;14.43;100.00
26043;BME280;13818;52.156;5.382;2023-08-07T01:15:17;101042.94;;;14.49;100.00
26043;BME280;13818;52.156;5.382;2023-08-07T01:17:47;101040.72;;;14.56;100.00
26043;BME280;13818;52.156;5.382;2023-08-07T01:20:15;101038.94;;;14.56;100.00
26043;BME280;13818;52.156;5.382;2023-08-07T01:22:43;101037.19;;;14.55;100.00
26043;BME280;13818;52.156;5.382;2023-08-07T01:25:10;101037.88;;;14.59;100.00
26043;BME280;13818;52.156;5.382;2023-08-07T01:27:38;101042.66;;;14.54;100.00
26043;BME280;13818;52.156;5.382;2023-08-07T01:30:13;101046.88;;;14.58;100.00
26043;BME280;13818;52.156;5.382;2023-08-07T01:32:49;101041.59;;;14.56;100.00
26043;BME280;13818;52.156;5.382;2023-08-07T01:35:22;101050.50;;;14.57;100.00
26043;BME280;13818;52.156;5.382;2023-08-07T01:37:53;101050.25;;;14.61;100.00
26043;BME280;13818;52.156;5.382;2023-08-07T01:40:22;101050.16;;;14.63;100.00
26043;BME280;13818;52.156;5.382;2023-08-07T01:42:49;101046.44;;;14.66;100.00
26043;BME280;13818;52.156;5.382;2023-08-07T01:45:22;101042.91;;;14.65;100.00
26043;BME280;13818;52.156;5.382;2023-08-07T01:47:49;101049.63;;;14.72;100.00
26043;BME280;13818;52.156;5.382;2023-08-07T01:50:15;101046.94;;;14.72;100.00
26043;BME280;13818;52.156;5.382;2023-08-07T01:52:42;101051.63;;;14.69;100.00
26043;BME280;13818;52.156;5.382;2023-08-07T01:55:10;101050.66;;;14.70;100.00
26043;BME280;13818;52.156;5.382;2023-08-07T01:57:36;101054.13;;;14.72;100.00
26043;BME280;13818;52.156;5.382;2023-08-07T02:00:03;101053.06;;;14.74;100.00
26043;BME280;13818;52.156;5.382;2023-08-07T02:02:30;101056.44;;;14.78;100.00
26043;BME280;13818;52.156;5.382;2023-08-07T02:04:56;101054.72;;;14.77;100.00
26043;BME280;13818;52.156;5.382;2023-08-07T02:07:23;101054.97;;;14.72;100.00
26043;BME280;13818;52.156;5.382;2023-08-07T02:09:49;101054.41;;;14.67;100.00
26043;BME280;13818;52.156;5.382;2023-08-07T02:12:17;101056.72;;;14.73;100.00
26043;BME280;13818;52.156;5.382;2023-08-07T02:14:43;101054.81;;;14.75;100.00
26043;BME280;13818;52.156;5.382;2023-08-07T02:17:10;101060.34;;;14.72;100.00
26043;BME280;13818;52.156;5.382;2023-08-07T02:19:36;101069.34;;;14.71;100.00
26043;BME280;13818;52.156;5.382;2023-08-07T02:22:03;101077.50;;;14.70;100.00
26043;BME280;13818;52.156;5.382;2023-08-07T02:24:29;101078.03;;;14.60;100.00
26043;BME280;13818;52.156;5.382;2023-08-07T02:26:56;101079.06;;;14.58;100.00
26043;BME280;13818;52.156;5.382;2023-08-07T02:29:25;101077.22;;;14.58;100.00
26043;BME280;13818;52.156;5.382;2023-08-07T02:31:51;101072.16;;;14.54;100.00
26043;BME280;13818;52.156;5.382;2023-08-07T02:34:18;101061.44;;;14.54;100.00
26043;BME280;13818;52.156;5.382;2023-08-07T02:36:44;101058.56;;;14.57;100.00
26043;BME280;13818;52.156;5.382;2023-08-07T02:39:10;101068.25;;;14.59;100.00
26043;BME280;13818;52.156;5.382;2023-08-07T02:41:37;101083.28;;;14.62;100.00
26043;BME280;13818;52.156;5.382;2023-08-07T02:44:04;101080.69;;;14.60;100.00
26043;BME280;13818;52.156;5.382;2023-08-07T02:46:31;101079.81;;;14.60;100.00
26043;BME280;13818;52.156;5.382;2023-08-07T02:49:01;101068.06;;;14.62;100.00
26043;BME280;13818;52.156;5.382;2023-08-07T02:51:27;101069.03;;;14.61;100.00
26043;BME280;13818;52.156;5.382;2023-08-07T02:53:54;101080.00;;;14.57;100.00
26043;BME280;13818;52.156;5.382;2023-08-07T02:56:20;101073.22;;;14.51;100.00
26043;BME280;13818;52.156;5.382;2023-08-07T02:58:46;101073.63;;;14.43;100.00
26043;BME280;13818;52.156;5.382;2023-08-07T03:01:13;101078.06;;;14.44;100.00
26043;BME280;13818;52.156;5.382;2023-08-07T03:03:41;101077.09;;;14.45;100.00
26043;BME280;13818;52.156;5.382;2023-08-07T03:06:07;101074.63;;;14.42;100.00
26043;BME280;13818;52.156;5.382;2023-08-07T03:08:33;101062.50;;;14.35;100.00
26043;BME280;13818;52.156;5.382;2023-08-07T03:11:00;101068.63;;;14.37;100.00
26043;BME280;13818;52.156;5.382;2023-08-07T03:13:27;101061.72;;;14.33;100.00
26043;BME280;13818;52.156;5.382;2023-08-07T03:15:58;101060.59;;;14.37;100.00
26043;BME280;13818;52.156;5.382;2023-08-07T03:18:25;101060.88;;;14.32;100.00
26043;BME280;13818;52.156;5.382;2023-08-07T03:20:53;101045.84;;;14.30;100.00
26043;BME280;13818;52.156;5.382;2023-08-07T03:23:19;101053.97;;;14.28;100.00
26043;BME280;13818;52.156;5.382;2023-08-07T03:25:45;101063.91;;;14.26;100.00
26043;BME280;13818;52.156;5.382;2023-08-07T03:28:12;101060.44;;;14.24;100.00
26043;BME280;13818;52.156;5.382;2023-08-07T03:30:38;101054.34;;;14.22;100.00
26043;BME280;13818;52.156;5.382;2023-08-07T03:33:05;101049.91;;;14.21;100.00
26043;BME280;13818;52.156;5.382;2023-08-07T03:35:32;101054.13;;;14.25;100.00
26043;BME280;13818;52.156;5.382;2023-08-07T03:38:00;101055.88;;;14.26;100.00
26043;BME280;13818;52.156;5.382;2023-08-07T03:40:26;101056.81;;;14.25;100.00
26043;BME280;13818;52.156;5.382;2023-08-07T03:42:53;101060.09;;;14.30;100.00
26043;BME280;13818;52.156;5.382;2023-08-07T03:45:19;101054.56;;;14.34;100.00
26043;BME280;13818;52.156;5.382;2023-08-07T03:47:45;101050.06;;;14.34;100.00
26043;BME280;13818;52.156;5.382;2023-08-07T03:50:12;101065.00;;;14.38;100.00
26043;BME280;13818;52.156;5.382;2023-08-07T03:52:38;101058.00;;;14.36;100.00
26043;BME280;13818;52.156;5.382;2023-08-07T03:55:06;101065.09;;;14.37;100.00
26043;BME280;13818;52.156;5.382;2023-08-07T03:57:33;101056.09;;;14.38;100.00
26043;BME280;13818;52.156;5.382;2023-08-07T03:59:59;101058.78;;;14.38;100.00
26043;BME280;13818;52.156;5.382;2023-08-07T04:02:26;101062.25;;;14.40;100.00
26043;BME280;13818;52.156;5.382;2023-08-07T04:04:53;101059.47;;;14.41;100.00
26043;BME280;13818;52.156;5.382;2023-08-07T04:07:20;101070.19;;;14.41;100.00
26043;BME280;13818;52.156;5.382;2023-08-07T04:09:46;101055.06;;;14.40;100.00
26043;BME280;13818;52.156;5.382;2023-08-07T04:12:14;101063.94;;;14.41;100.00
26043;BME280;13818;52.156;5.382;2023-08-07T04:14:40;101066.63;;;14.41;100.00
26043;BME280;13818;52.156;5.382;2023-08-07T04:17:07;101066.47;;;14.44;100.00
26043;BME280;13818;52.156;5.382;2023-08-07T04:19:33;101072.78;;;14.43;100.00
26043;BME280;13818;52.156;5.382;2023-08-07T04:22:00;101069.00;;;14.31;100.00
26043;BME280;13818;52.156;5.382;2023-08-07T04:24:26;101072.44;;;14.33;100.00
26043;BME280;13818;52.156;5.382;2023-08-07T04:26:52;101073.41;;;14.32;100.00
26043;BME280;13818;52.156;5.382;2023-08-07T04:29:21;101079.44;;;14.36;100.00
26043;BME280;13818;52.156;5.382;2023-08-07T04:31:47;101078.50;;;14.37;100.00
26043;BME280;13818;52.156;5.382;2023-08-07T04:34:13;101087.41;;;14.37;100.00
26043;BME280;13818;52.156;5.382;2023-08-07T04:36:40;101089.81;;;14.42;100.00
26043;BME280;13818;52.156;5.382;2023-08-07T04:39:06;101091.81;;;14.38;100.00
26043;BME280;13818;52.156;5.382;2023-08-07T04:41:33;101096.06;;;14.42;100.00
26043;BME280;13818;52.156;5.382;2023-08-07T04:44:00;101102.28;;;14.43;100.00
26043;BME280;13818;52.156;5.382;2023-08-07T04:46:27;101097.88;;;14.42;100.00
26043;BME280;13818;52.156;5.382;2023-08-07T04:48:54;101100.81;;;14.37;100.00
26043;BME280;13818;52.156;5.382;2023-08-07T04:51:20;101108.84;;;14.37;100.00
26043;BME280;13818;52.156;5.382;2023-08-07T04:53:47;101105.91;;;14.42;100.00
26043;BME280;13818;52.156;5.382;2023-08-07T04:56:16;101115.00;;;14.39;100.00
26043;BME280;13818;52.156;5.382;2023-08-07T04:58:42;101118.19;;;14.46;100.00
26043;BME280;13818;52.156;5.382;2023-08-07T05:01:08;101106.69;;;14.44;100.00
26043;BME280;13818;52.156;5.382;2023-08-07T05:03:36;101106.59;;;14.45;100.00
26043;BME280;13818;52.156;5.382;2023-08-07T05:06:03;101115.50;;;14.46;100.00
26043;BME280;13818;52.156;5.382;2023-08-07T05:08:29;101126.31;;;14.44;100.00
26043;BME280;13818;52.156;5.382;2023-08-07T05:10:55;101133.91;;;14.52;100.00
26043;BME280;13818;52.156;5.382;2023-08-07T05:13:22;101143.00;;;14.49;100.00
26043;BME280;13818;52.156;5.382;2023-08-07T05:15:49;101143.00;;;14.49;100.00
26043;BME280;13818;52.156;5.382;2023-08-07T05:18:15;101145.28;;;14.41;100.00
26043;BME280;13818;52.156;5.382;2023-08-07T05:20:43;101153.69;;;14.35;100.00
26043;BME280;13818;52.156;5.382;2023-08-07T05:23:10;101150.06;;;14.36;100.00
26043;BME280;13818;52.156;5.382;2023-08-07T05:25:37;101144.84;;;14.33;100.00
26043;BME280;13818;52.156;5.382;2023-08-07T05:28:03;101144.75;;;14.35;100.00
26043;BME280;13818;52.156;5.382;2023-08-07T05:30:30;101152.19;;;14.45;100.00
26043;BME280;13818;52.156;5.382;2023-08-07T05:32:57;101150.38;;;14.46;100.00
26043;BME280;13818;52.156;5.382;2023-08-07T05:35:23;101161.72;;;14.51;100.00
26043;BME280;13818;52.156;5.382;2023-08-07T05:37:51;101155.03;;;14.58;100.00
26043;BME280;13818;52.156;5.382;2023-08-07T05:40:17;101155.03;;;14.58;100.00
26043;BME280;13818;52.156;5.382;2023-08-07T05:42:44;101160.13;;;14.63;100.00
26043;BME280;13818;52.156;5.382;2023-08-07T05:45:10;101159.72;;;14.71;100.00
26043;BME280;13818;52.156;5.382;2023-08-07T05:47:37;101172.34;;;14.69;100.00
26043;BME280;13818;52.156;5.382;2023-08-07T05:50:04;101173.22;;;14.69;100.00
26043;BME280;13818;52.156;5.382;2023-08-07T05:52:31;101168.59;;;14.71;100.00
26043;BME280;13818;52.156;5.382;2023-08-07T05:54:59;101169.50;;;14.72;100.00
26043;BME280;13818;52.156;5.382;2023-08-07T05:57:25;101166.25;;;14.81;100.00
26043;BME280;13818;52.156;5.382;2023-08-07T05:59:51;101162.53;;;14.84;100.00
26043;BME280;13818;52.156;5.382;2023-08-07T06:02:18;101165.72;;;14.90;100.00
26043;BME280;13818;52.156;5.382;2023-08-07T06:04:44;101170.66;;;14.98;100.00
26043;BME280;13818;52.156;5.382;2023-08-07T06:07:11;101175.06;;;14.99;100.00
26043;BME280;13818;52.156;5.382;2023-08-07T06:09:37;101173.66;;;15.08;100.00
26043;BME280;13818;52.156;5.382;2023-08-07T06:12:06;101174.03;;;15.16;100.00
26043;BME280;13818;52.156;5.382;2023-08-07T06:14:32;101181.94;;;15.19;100.00
26043;BME280;13818;52.156;5.382;2023-08-07T06:16:59;101183.25;;;15.26;100.00
26043;BME280;13818;52.156;5.382;2023-08-07T06:19:26;101185.97;;;15.41;100.00
26043;BME280;13818;52.156;5.382;2023-08-07T06:21:53;101198.00;;;15.50;100.00
26043;BME280;13818;52.156;5.382;2023-08-07T06:24:20;101189.25;;;15.60;100.00
26043;BME280;13818;52.156;5.382;2023-08-07T06:26:46;101190.69;;;15.81;100.00
26043;BME280;13818;52.156;5.382;2023-08-07T06:29:14;101184.38;;;16.10;100.00
26043;BME280;13818;52.156;5.382;2023-08-07T06:31:41;101184.50;;;16.36;100.00
26043;BME280;13818;52.156;5.382;2023-08-07T06:34:08;101193.38;;;16.66;100.00
26043;BME280;13818;52.156;5.382;2023-08-07T06:36:35;101190.59;;;16.80;100.00
26043;BME280;13818;52.156;5.382;2023-08-07T06:39:02;101195.56;;;16.86;100.00
26043;BME280;13818;52.156;5.382;2023-08-07T06:41:30;101197.19;;;16.89;100.00
26043;BME280;13818;52.156;5.382;2023-08-07T06:43:56;101201.59;;;16.77;100.00
26043;BME280;13818;52.156;5.382;2023-08-07T06:46:25;101196.34;;;16.88;100.00
26043;BME280;13818;52.156;5.382;2023-08-07T06:48:53;101197.38;;;17.00;100.00
26043;BME280;13818;52.156;5.382;2023-08-07T06:51:19;101194.69;;;17.13;100.00
26043;BME280;13818;52.156;5.382;2023-08-07T06:53:46;101197.09;;;17.31;100.00
26043;BME280;13818;52.156;5.382;2023-08-07T06:56:12;101203.78;;;17.51;100.00
26043;BME280;13818;52.156;5.382;2023-08-07T06:58:38;101207.88;;;17.82;100.00
26043;BME280;13818;52.156;5.382;2023-08-07T07:01:05;101203.38;;;17.96;100.00
26043;BME280;13818;52.156;5.382;2023-08-07T07:03:33;101201.88;;;17.92;100.00
26043;BME280;13818;52.156;5.382;2023-08-07T07:05:59;101207.03;;;17.82;100.00
26043;BME280;13818;52.156;5.382;2023-08-07T07:08:25;101211.69;;;17.54;100.00
26043;BME280;13818;52.156;5.382;2023-08-07T07:10:52;101216.97;;;17.43;100.00
26043;BME280;13818;52.156;5.382;2023-08-07T07:13:18;101227.34;;;17.08;100.00
26043;BME280;13818;52.156;5.382;2023-08-07T07:15:45;101237.66;;;16.74;100.00
26043;BME280;13818;52.156;5.382;2023-08-07T07:18:11;101241.31;;;16.59;100.00
26043;BME280;13818;52.156;5.382;2023-08-07T07:20:39;101241.75;;;16.53;100.00
26043;BME280;13818;52.156;5.382;2023-08-07T07:23:06;101248.84;;;16.54;100.00
26043;BME280;13818;52.156;5.382;2023-08-07T07:25:32;101249.22;;;16.62;100.00
26043;BME280;13818;52.156;5.382;2023-08-07T07:27:58;101246.25;;;16.94;100.00
26043;BME280;13818;52.156;5.382;2023-08-07T07:30:25;101261.84;;;17.16;100.00
26043;BME280;13818;52.156;5.382;2023-08-07T07:32:51;101253.63;;;17.71;100.00
26043;BME280;13818;52.156;5.382;2023-08-07T07:35:18;101251.78;;;18.60;100.00
26043;BME280;13818;52.156;5.382;2023-08-07T07:37:46;101248.22;;;19.32;100.00
26043;BME280;13818;52.156;5.382;2023-08-07T07:40:12;101251.56;;;19.83;100.00
26043;BME280;13818;52.156;5.382;2023-08-07T07:42:39;101245.31;;;20.16;100.00
26043;BME280;13818;52.156;5.382;2023-08-07T07:45:06;101261.72;;;20.93;100.00
26043;BME280;13818;52.156;5.382;2023-08-07T07:47:32;101259.25;;;21.22;100.00
26043;BME280;13818;52.156;5.382;2023-08-07T07:50:06;101264.84;;;21.09;100.00
26043;BME280;13818;52.156;5.382;2023-08-07T07:52:33;101263.09;;;20.76;100.00
26043;BME280;13818;52.156;5.382;2023-08-07T07:55:01;101264.09;;;20.41;100.00
26043;BME280;13818;52.156;5.382;2023-08-07T07:57:28;101264.59;;;19.89;100.00
26043;BME280;13818;52.156;5.382;2023-08-07T07:59:54;101277.91;;;19.21;100.00
26043;BME280;13818;52.156;5.382;2023-08-07T08:02:21;101276.84;;;18.99;100.00
26043;BME280;13818;52.156;5.382;2023-08-07T08:04:48;101286.78;;;18.62;100.00
26043;BME280;13818;52.156;5.382;2023-08-07T08:07:14;101285.53;;;18.42;100.00
26043;BME280;13818;52.156;5.382;2023-08-07T08:09:42;101286.22;;;18.07;100.00
26043;BME280;13818;52.156;5.382;2023-08-07T08:12:10;101288.34;;;17.76;100.00
26043;BME280;13818;52.156;5.382;2023-08-07T08:14:36;101301.44;;;17.42;100.00
26043;BME280;13818;52.156;5.382;2023-08-07T08:17:03;101296.22;;;17.26;100.00
26043;BME280;13818;52.156;5.382;2023-08-07T08:19:29;101304.41;;;17.24;100.00
26043;BME280;13818;52.156;5.382;2023-08-07T08:21:55;101311.31;;;17.28;100.00
26043;BME280;13818;52.156;5.382;2023-08-07T08:24:22;101312.56;;;17.50;100.00
26043;BME280;13818;52.156;5.382;2023-08-07T08:26:49;101315.00;;;17.80;100.00
26043;BME280;13818;52.156;5.382;2023-08-07T08:29:16;101303.91;;;18.24;100.00
26043;BME280;13818;52.156;5.382;2023-08-07T08:31:43;101306.56;;;18.86;100.00
26043;BME280;13818;52.156;5.382;2023-08-07T08:34:09;101307.59;;;19.34;100.00
26043;BME280;13818;52.156;5.382;2023-08-07T08:36:36;101299.06;;;19.63;100.00
26043;BME280;13818;52.156;5.382;2023-08-07T08:39:02;101306.09;;;19.77;100.00
26043;BME280;13818;52.156;5.382;2023-08-07T08:41:29;101295.88;;;20.27;100.00
26043;BME280;13818;52.156;5.382;2023-08-07T08:43:57;101296.09;;;20.47;100.00
26043;BME280;13818;52.156;5.382;2023-08-07T08:46:28;101303.59;;;20.66;100.00
26043;BME280;13818;52.156;5.382;2023-08-07T08:48:57;101300.53;;;20.25;100.00
26043;BME280;13818;52.156;5.382;2023-08-07T08:51:24;101310.72;;;19.88;100.00
26043;BME280;13818;52.156;5.382;2023-08-07T08:53:52;101326.06;;;19.51;100.00
26043;BME280;13818;52.156;5.382;2023-08-07T08:56:19;101315.75;;;19.21;100.00
26043;BME280;13818;52.156;5.382;2023-08-07T08:58:47;101335.06;;;19.03;100.00
26043;BME280;13818;52.156;5.382;2023-08-07T09:01:14;101334.56;;;18.85;100.00
26043;BME280;13818;52.156;5.382;2023-08-07T09:03:43;101338.50;;;18.68;100.00
26043;BME280;13818;52.156;5.382;2023-08-07T09:06:11;101335.81;;;18.56;100.00
26043;BME280;13818;52.156;5.382;2023-08-07T09:08:40;101340.00;;;18.73;100.00
26043;BME280;13818;52.156;5.382;2023-08-07T09:11:08;101329.28;;;18.84;100.00
26043;BME280;13818;52.156;5.382;2023-08-07T09:13:36;101344.63;;;18.96;100.00
26043;BME280;13818;52.156;5.382;2023-08-07T09:16:04;101340.00;;;19.10;100.00
26043;BME280;13818;52.156;5.382;2023-08-07T09:18:31;101334.59;;;19.10;100.00
26043;BME280;13818;52.156;5.382;2023-08-07T09:21:00;101340.69;;;19.25;100.00
26043;BME280;13818;52.156;5.382;2023-08-07T09:23:27;101347.81;;;19.50;100.00
26043;BME280;13818;52.156;5.382;2023-08-07T09:26:00;101350.25;;;19.77;100.00
26043;BME280;13818;52.156;5.382;2023-08-07T09:28:28;101354.88;;;19.99;100.00
26043;BME280;13818;52.156;5.382;2023-08-07T09:30:54;101353.81;;;20.25;100.00
26043;BME280;13818;52.156;5.382;2023-08-07T09:33:24;101356.28;;;20.28;100.00
26043;BME280;13818;52.156;5.382;2023-08-07T09:35:51;101351.69;;;20.06;100.00
26043;BME280;13818;52.156;5.382;2023-08-07T09:38:22;101348.25;;;20.04;100.00
26043;BME280;13818;52.156;5.382;2023-08-07T09:40:48;101360.81;;;19.80;100.00
26043;BME280;13818;52.156;5.382;2023-08-07T09:43:20;101355.50;;;19.67;100.00
26043;BME280;13818;52.156;5.382;2023-08-07T09:45:48;101355.03;;;19.38;100.00
26043;BME280;13818;52.156;5.382;2023-08-07T09:48:23;101359.34;;;19.41;100.00
26043;BME280;13818;52.156;5.382;2023-08-07T09:50:49;101356.47;;;19.07;100.00
26043;BME280;13818;52.156;5.382;2023-08-07T09:53:16;101353.88;;;18.92;100.00
26043;BME280;13818;52.156;5.382;2023-08-07T09:55:44;101370.69;;;19.09;100.00
26043;BME280;13818;52.156;5.382;2023-08-07T09:58:11;101372.41;;;19.23;100.00
26043;BME280;13818;52.156;5.382;2023-08-07T10:00:39;101378.41;;;19.26;100.00
26043;BME280;13818;52.156;5.382;2023-08-07T10:03:06;101384.81;;;19.25;100.00
26043;BME280;13818;52.156;5.382;2023-08-07T10:05:33;101389.72;;;19.31;100.00
26043;BME280;13818;52.156;5.382;2023-08-07T10:08:00;101389.91;;;19.17;100.00
26043;BME280;13818;52.156;5.382;2023-08-07T10:10:27;101402.22;;;19.21;100.00
26043;BME280;13818;52.156;5.382;2023-08-07T10:12:56;101397.03;;;19.18;100.00
26043;BME280;13818;52.156;5.382;2023-08-07T10:15:25;101389.84;;;19.06;100.00
26043;BME280;13818;52.156;5.382;2023-08-07T10:17:52;101388.25;;;19.27;100.00
26043;BME280;13818;52.156;5.382;2023-08-07T10:20:19;101391.53;;;19.44;100.00
26043;BME280;13818;52.156;5.382;2023-08-07T10:22:46;101388.78;;;19.57;100.00
26043;BME280;13818;52.156;5.382;2023-08-07T10:25:15;101392.88;;;19.74;100.00
26043;BME280;13818;52.156;5.382;2023-08-07T10:27:47;101387.34;;;19.75;100.00
26043;BME280;13818;52.156;5.382;2023-08-07T10:30:18;101384.59;;;19.88;100.00
26043;BME280;13818;52.156;5.382;2023-08-07T10:32:46;101386.72;;;19.96;100.00
26043;BME280;13818;52.156;5.382;2023-08-07T10:35:23;101392.06;;;20.09;100.00
26043;BME280;13818;52.156;5.382;2023-08-07T10:37:51;101388.38;;;20.21;100.00
26043;BME280;13818;52.156;5.382;2023-08-07T10:40:17;101386.38;;;20.12;100.00
26043;BME280;13818;52.156;5.382;2023-08-07T10:42:56;101390.63;;;19.92;100.00
26043;BME280;13818;52.156;5.382;2023-08-07T10:45:26;101391.56;;;19.79;100.00
26043;BME280;13818;52.156;5.382;2023-08-07T10:48:04;101404.88;;;19.82;100.00
26043;BME280;13818;52.156;5.382;2023-08-07T10:50:32;101394.06;;;19.58;100.00
26043;BME280;13818;52.156;5.382;2023-08-07T10:53:00;101393.34;;;19.67;100.00
26043;BME280;13818;52.156;5.382;2023-08-07T10:55:31;101397.97;;;19.78;100.00
26043;BME280;13818;52.156;5.382;2023-08-07T10:57:59;101395.84;;;19.71;100.00
26043;BME280;13818;52.156;5.382;2023-08-07T11:00:27;101390.06;;;19.75;100.00
26043;BME280;13818;52.156;5.382;2023-08-07T11:02:57;101401.38;;;19.93;100.00
26043;BME280;13818;52.156;5.382;2023-08-07T11:05:26;101408.38;;;19.96;100.00
26043;BME280;13818;52.156;5.382;2023-08-07T11:07:53;101413.78;;;19.96;100.00
26043;BME280;13818;52.156;5.382;2023-08-07T11:10:20;101416.91;;;20.14;100.00
26043;BME280;13818;52.156;5.382;2023-08-07T11:12:46;101420.34;;;20.05;100.00
26043;BME280;13818;52.156;5.382;2023-08-07T11:15:13;101428.56;;;20.14;100.00
26043;BME280;13818;52.156;5.382;2023-08-07T11:17:41;101422.28;;;20.03;100.00
26043;BME280;13818;52.156;5.382;2023-08-07T11:20:09;101420.25;;;20.29;100.00
26043;BME280;13818;52.156;5.382;2023-08-07T11:22:38;101426.16;;;20.23;100.00
26043;BME280;13818;52.156;5.382;2023-08-07T11:25:06;101417.78;;;20.37;100.00
26043;BME280;13818;52.156;5.382;2023-08-07T11:27:36;101419.75;;;20.24;100.00
26043;BME280;13818;52.156;5.382;2023-08-07T11:30:03;101415.50;;;20.55;100.00
26043;BME280;13818;52.156;5.382;2023-08-07T11:32:30;101404.94;;;20.75;100.00
26043;BME280;13818;52.156;5.382;2023-08-07T11:34:58;101399.78;;;20.72;100.00
26043;BME280;13818;52.156;5.382;2023-08-07T11:37:25;101400.09;;;20.67;100.00
26043;BME280;13818;52.156;5.382;2023-08-07T11:39:51;101416.75;;;20.74;100.00
26043;BME280;13818;52.156;5.382;2023-08-07T11:42:18;101425.22;;;21.15;100.00
26043;BME280;13818;52.156;5.382;2023-08-07T11:44:47;101424.19;;;21.38;100.00
26043;BME280;13818;52.156;5.382;2023-08-07T11:47:15;101418.13;;;21.57;100.00
26043;BME280;13818;52.156;5.382;2023-08-07T11:49:41;101418.88;;;21.37;100.00
26043;BME280;13818;52.156;5.382;2023-08-07T11:52:09;101417.66;;;21.41;100.00
26043;BME280;13818;52.156;5.382;2023-08-07T11:54:36;101413.84;;;21.32;100.00
26043;BME280;13818;52.156;5.382;2023-08-07T11:57:15;101414.34;;;21.37;100.00
26043;BME280;13818;52.156;5.382;2023-08-07T11:59:41;101412.13;;;21.31;100.00
26043;BME280;13818;52.156;5.382;2023-08-07T12:02:09;101404.38;;;21.26;100.00
26043;BME280;13818;52.156;5.382;2023-08-07T12:04:36;101407.97;;;21.27;100.00
26043;BME280;13818;52.156;5.382;2023-08-07T12:07:03;101405.78;;;21.42;100.00
26043;BME280;13818;52.156;5.382;2023-08-07T12:09:31;101411.44;;;21.50;100.00
26043;BME280;13818;52.156;5.382;2023-08-07T12:11:58;101414.03;;;21.52;100.00
26043;BME280;13818;52.156;5.382;2023-08-07T12:14:28;101406.81;;;21.41;100.00
26043;BME280;13818;52.156;5.382;2023-08-07T12:16:55;101419.50;;;21.29;100.00
26043;BME280;13818;52.156;5.382;2023-08-07T12:19:21;101408.50;;;20.98;99.25
26043;BME280;13818;52.156;5.382;2023-08-07T12:21:48;101409.09;;;20.79;100.00
26043;BME280;13818;52.156;5.382;2023-08-07T12:24:14;101410.72;;;20.93;100.00
26043;BME280;13818;52.156;5.382;2023-08-07T12:26:42;101411.41;;;21.18;100.00
26043;BME280;13818;52.156;5.382;2023-08-07T12:29:08;101417.56;;;21.20;92.53
26043;BME280;13818;52.156;5.382;2023-08-07T12:31:35;101411.88;;;21.23;91.92
26043;BME280;13818;52.156;5.382;2023-08-07T12:34:01;101418.53;;;21.30;98.36
26043;BME280;13818;52.156;5.382;2023-08-07T12:36:28;101421.84;;;21.34;95.14
26043;BME280;13818;52.156;5.382;2023-08-07T12:38:54;101417.91;;;21.26;95.91
26043;BME280;13818;52.156;5.382;2023-08-07T12:41:20;101406.22;;;21.26;93.14